Time;durP1;ratioP1;P1;durP2;ratioP2;P2;SDS_P1;SDS_P2;PMS_P1;PMS_P2;Temp;Humidity;BMP_temperature;BMP_pressure;BME280_temperature;BME280_humidity;BME280_pressure;Samples;Min_cycle;Max_cycle;Signal;HPM_P1;HPM_P2
2022/03/26 10:34:07;;;;;;;8.88;4.30;;;;;;;;;;5089918;28;20075;-62
2022/03/26 10:36:37;;;;;;;8.68;5.15;;;;;;;;;;5089966;28;20040;-62
2022/03/26 10:39:04;;;;;;;6.93;4.65;;;;;;;;;;5082614;28;20032;-61
2022/03/26 10:41:32;;;;;;;5.80;4.68;;;;;;;;;;5078293;28;20055;-62
2022/03/26 10:44:11;;;;;;;6.50;4.85;;;;;;;;;;5084355;28;20083;-61
2022/03/26 10:46:55;;;;;;;6.38;5.22;;;;;;;;;;5082058;28;20126;-62
2022/03/26 10:49:31;;;;;;;8.68;5.55;;;;;;;;;;5075601;28;20048;-62
2022/03/26 10:52:04;;;;;;;7.65;5.07;;;;;;;;;;5081852;28;20090;-61
2022/03/26 10:54:31;;;;;;;8.63;4.38;;;;;;;;;;5082250;28;20121;-61
2022/03/26 10:57:01;;;;;;;5.57;4.63;;;;;;;;;;5089924;28;20041;-61
2022/03/26 10:59:28;;;;;;;8.07;4.90;;;;;;;;;;5089879;28;20049;-61
2022/03/26 11:01:54;;;;;;;5.60;4.32;;;;;;;;;;5089155;28;20123;-62
2022/03/26 11:04:21;;;;;;;6.32;4.40;;;;;;;;;;5089740;28;20048;-61
2022/03/26 11:06:48;;;;;;;6.20;4.45;;;;;;;;;;5089081;28;20047;-62
2022/03/26 11:09:15;;;;;;;7.20;4.53;;;;;;;;;;5081189;28;20052;-61
2022/03/26 11:11:42;;;;;;;6.55;4.22;;;;;;;;;;5088009;28;20503;-61
2022/03/26 11:14:11;;;;;;;6.45;4.13;;;;;;;;;;5079436;28;20048;-61
2022/03/26 11:16:40;;;;;;;7.78;4.78;;;;;;;;;;5082119;28;20044;-61
2022/03/26 11:19:25;;;;;;;6.20;4.18;;;;;;;;;;5081598;28;20060;-61
2022/03/26 11:21:51;;;;;;;6.45;4.30;;;;;;;;;;5086700;28;20040;-61
2022/03/26 11:24:43;;;;;;;6.18;3.92;;;;;;;;;;5087243;28;20044;-61
2022/03/26 11:27:33;;;;;;;6.75;4.10;;;;;;;;;;5082436;28;20106;-61
2022/03/26 11:30:16;;;;;;;4.75;3.80;;;;;;;;;;5096576;28;20762;-61
2022/03/26 11:32:44;;;;;;;6.70;4.15;;;;;;;;;;5092875;28;20052;-61
2022/03/26 11:35:11;;;;;;;6.47;3.92;;;;;;;;;;5103447;28;20123;-61
2022/03/26 11:37:50;;;;;;;5.47;3.97;;;;;;;;;;5091025;28;20063;-60
2022/03/26 11:40:37;;;;;;;5.93;3.85;;;;;;;;;;5104819;28;20425;-60
2022/03/26 11:43:03;;;;;;;;;;;;;;;;;;5091341;28;20048;-61
2022/03/26 11:51:16;;;;;;;7.10;3.70;;;;;;;;;;5095797;28;20087;-60
2022/03/26 11:53:47;;;;;;;4.68;3.60;;;;;;;;;;5095437;28;20047;-60
2022/03/26 11:56:33;;;;;;;5.18;3.38;;;;;;;;;;5095005;28;20515;-60
2022/03/26 11:59:08;;;;;;;5.07;3.50;;;;;;;;;;5095290;28;20044;-60
2022/03/26 12:01:41;;;;;;;6.30;3.50;;;;;;;;;;5095408;28;20105;-61
2022/03/26 12:04:12;;;;;;;4.55;3.42;;;;;;;;;;5075123;28;21076;-61
2022/03/26 12:06:42;;;;;;;4.88;3.33;;;;;;;;;;5095073;28;20127;-60
2022/03/26 12:09:09;;;;;;;6.05;3.63;;;;;;;;;;5095248;28;20047;-61
2022/03/26 12:11:35;;;;;;;3.45;3.00;;;;;;;;;;5095394;28;20059;-61
2022/03/26 12:14:03;;;;;;;3.53;3.10;;;;;;;;;;5085532;28;20498;-60
2022/03/26 12:16:48;;;;;;;3.72;2.83;;;;;;;;;;5094002;28;20126;-61
2022/03/26 12:19:34;;;;;;;5.20;3.30;;;;;;;;;;5095072;28;20109;-61
2022/03/26 12:22:00;;;;;;;;;;;;;;;;;;5095839;28;20039;-61
2022/03/26 12:24:29;;;;;;;4.30;2.95;;;;;;;;;;5094536;28;19966;-61
2022/03/26 12:26:55;;;;;;;4.43;3.20;;;;;;;;;;5093892;28;20128;-61
2022/03/26 12:29:22;;;;;;;3.38;2.85;;;;;;;;;;5093013;28;20446;-61
2022/03/26 12:31:51;;;;;;;3.85;3.05;;;;;;;;;;5094879;28;20494;-61
2022/03/26 12:34:17;;;;;;;3.70;2.90;;;;;;;;;;5094635;28;20048;-61
2022/03/26 12:36:43;;;;;;;3.67;2.75;;;;;;;;;;5094902;28;20498;-61
2022/03/26 12:39:11;;;;;;;2.97;2.55;;;;;;;;;;5077011;28;20047;-61
2022/03/26 12:41:37;;;;;;;3.38;2.85;;;;;;;;;;5094635;28;20048;-61
2022/03/26 12:44:03;;;;;;;3.47;2.65;;;;;;;;;;5094441;28;20039;-60
2022/03/26 12:46:34;;;;;;;3.75;2.75;;;;;;;;;;5093384;28;20040;-60
2022/03/26 12:49:00;;;;;;;2.72;2.42;;;;;;;;;;5094228;28;20048;-61
2022/03/26 12:51:29;;;;;;;3.70;2.70;;;;;;;;;;5094192;28;20040;-61
2022/03/26 12:53:55;;;;;;;3.58;2.45;;;;;;;;;;5093487;28;20048;-61
2022/03/26 12:56:21;;;;;;;3.20;2.88;;;;;;;;;;5094067;28;20126;-61
2022/03/26 12:58:56;;;;;;;2.90;2.45;;;;;;;;;;5093864;28;20487;-61
2022/03/26 13:01:23;;;;;;;3.28;2.30;;;;;;;;;;5094421;28;20040;-61
2022/03/26 13:03:50;;;;;;;3.53;2.53;;;;;;;;;;5092986;28;20036;-60
2022/03/26 13:06:17;;;;;;;3.85;2.83;;;;;;;;;;5093339;28;20051;-61
2022/03/26 13:08:48;;;;;;;4.15;2.80;;;;;;;;;;5093146;28;20048;-61
2022/03/26 13:11:14;;;;;;;3.78;2.70;;;;;;;;;;5093219;28;20123;-61
2022/03/26 13:13:53;;;;;;;3.80;3.13;;;;;;;;;;5093955;28;20044;-61
2022/03/26 13:16:21;;;;;;;3.10;2.63;;;;;;;;;;5093999;28;20040;-61
2022/03/26 13:18:56;;;;;;;3.47;2.60;;;;;;;;;;5093880;28;20048;-61
2022/03/26 13:21:23;;;;;;;3.65;3.08;;;;;;;;;;5092733;28;20500;-61
2022/03/26 13:23:53;;;;;;;3.95;2.80;;;;;;;;;;5093514;28;20044;-61
2022/03/26 13:26:19;;;;;;;2.92;2.63;;;;;;;;;;5094033;28;20102;-61
2022/03/26 13:28:45;;;;;;;3.22;2.70;;;;;;;;;;5093534;28;20036;-61
2022/03/26 13:31:18;;;;;;;3.40;2.45;;;;;;;;;;5093945;28;20044;-61
2022/03/26 13:33:44;;;;;;;3.60;2.45;;;;;;;;;;5093821;28;20133;-61
2022/03/26 13:36:10;;;;;;;2.92;2.53;;;;;;;;;;5093583;28;20502;-60
2022/03/26 13:38:40;;;;;;;2.95;2.35;;;;;;;;;;5093553;28;20052;-60
2022/03/26 13:41:13;;;;;;;3.15;2.60;;;;;;;;;;5093683;28;20051;-61
2022/03/26 13:43:40;;;;;;;3.28;2.60;;;;;;;;;;5093602;28;20083;-60
2022/03/26 13:46:06;;;;;;;2.88;2.40;;;;;;;;;;5093545;28;20039;-61
2022/03/26 13:48:45;;;;;;;2.97;2.67;;;;;;;;;;5093457;28;20052;-61
2022/03/26 13:51:11;;;;;;;2.80;2.35;;;;;;;;;;5093635;28;20040;-61
2022/03/26 13:53:41;;;;;;;3.35;2.60;;;;;;;;;;5093022;28;20044;-61
2022/03/26 13:56:08;;;;;;;3.90;2.50;;;;;;;;;;5093256;28;20474;-61
2022/03/26 13:58:34;;;;;;;4.05;2.50;;;;;;;;;;5093372;28;20055;-61
2022/03/26 14:01:05;;;;;;;3.03;2.47;;;;;;;;;;5092996;28;20044;-61
2022/03/26 14:03:35;;;;;;;3.78;2.50;;;;;;;;;;5075112;28;20052;-61
2022/03/26 14:06:02;;;;;;;2.90;2.40;;;;;;;;;;5093355;28;20071;-60
2022/03/26 14:08:28;;;;;;;4.35;2.40;;;;;;;;;;5092980;28;20036;-61
2022/03/26 14:10:55;;;;;;;3.40;2.50;;;;;;;;;;5093134;28;20040;-61
2022/03/26 14:13:21;;;;;;;4.90;2.45;;;;;;;;;;5093035;28;20097;-61
2022/03/26 14:15:50;;;;;;;2.95;2.50;;;;;;;;;;5092769;28;20502;-61
2022/03/26 14:18:18;;;;;;;4.15;2.67;;;;;;;;;;5093128;28;20047;-61
2022/03/26 14:20:45;;;;;;;3.35;2.50;;;;;;;;;;5092767;28;20044;-61
2022/03/26 14:23:11;;;;;;;3.40;2.65;;;;;;;;;;5092915;28;20040;-61
2022/03/26 14:25:39;;;;;;;3.95;2.55;;;;;;;;;;5092936;28;20514;-61
2022/03/26 14:28:06;;;;;;;4.03;2.80;;;;;;;;;;5092731;28;20036;-61
2022/03/26 14:30:32;;;;;;;3.78;3.00;;;;;;;;;;5074813;28;20051;-61
2022/03/26 14:32:59;;;;;;;4.28;2.50;;;;;;;;;;5093128;28;20048;-60
2022/03/26 14:35:25;;;;;;;4.47;2.75;;;;;;;;;;5093071;28;20051;-60
2022/03/26 14:37:51;;;;;;;2.95;2.60;;;;;;;;;;5092438;28;20047;-60
2022/03/26 14:40:18;;;;;;;3.90;2.45;;;;;;;;;;5093065;28;20048;-60
2022/03/26 14:42:44;;;;;;;5.03;2.70;;;;;;;;;;5092658;28;20032;-60
2022/03/26 14:45:10;;;;;;;5.70;2.60;;;;;;;;;;5092704;28;20449;-60
2022/03/26 14:47:37;;;;;;;3.33;2.60;;;;;;;;;;5092968;28;20178;-60
2022/03/26 14:50:03;;;;;;;3.63;2.55;;;;;;;;;;5092479;28;20052;-60
2022/03/26 14:52:29;;;;;;;3.95;2.70;;;;;;;;;;5092505;28;20490;-60
2022/03/26 14:54:55;;;;;;;3.33;2.60;;;;;;;;;;5093001;28;20036;-60
2022/03/26 14:57:22;;;;;;;4.43;2.50;;;;;;;;;;5092334;28;20040;-60
2022/03/26 14:59:50;;;;;;;3.50;2.50;;;;;;;;;;5092532;28;20574;-60
2022/03/26 15:02:16;;;;;;;3.80;2.22;;;;;;;;;;5092809;28;20052;-60
2022/03/26 15:04:43;;;;;;;4.95;2.72;;;;;;;;;;5092500;28;20487;-60
2022/03/26 15:07:09;;;;;;;4.60;2.78;;;;;;;;;;5092392;28;20051;-60
2022/03/26 15:09:35;;;;;;;4.28;2.35;;;;;;;;;;5092464;28;20145;-60
2022/03/26 15:12:02;;;;;;;4.55;2.65;;;;;;;;;;5092223;28;20044;-60
2022/03/26 15:14:28;;;;;;;6.22;2.70;;;;;;;;;;5092724;28;20045;-60
2022/03/26 15:16:54;;;;;;;3.25;2.35;;;;;;;;;;5094992;28;20044;-60
2022/03/26 15:19:21;;;;;;;4.35;2.63;;;;;;;;;;5096534;28;20123;-60
2022/03/26 15:21:49;;;;;;;4.63;2.60;;;;;;;;;;5096367;28;20040;-60
2022/03/26 15:24:16;;;;;;;4.43;2.67;;;;;;;;;;5096201;28;20055;-60
2022/03/26 15:26:43;;;;;;;3.30;2.45;;;;;;;;;;5095400;28;20399;-60
2022/03/26 15:29:10;;;;;;;3.75;2.42;;;;;;;;;;5095948;28;20059;-60
2022/03/26 15:31:37;;;;;;;3.70;2.70;;;;;;;;;;5096234;28;20044;-60
2022/03/26 15:34:03;;;;;;;3.92;2.60;;;;;;;;;;5095990;28;20372;-60
2022/03/26 15:36:29;;;;;;;4.22;2.50;;;;;;;;;;5096057;28;20051;-60
2022/03/26 15:38:55;;;;;;;3.65;2.35;;;;;;;;;;5095961;28;20048;-60
2022/03/26 15:41:22;;;;;;;3.08;2.30;;;;;;;;;;5095535;28;20048;-60
2022/03/26 15:43:48;;;;;;;3.55;2.08;;;;;;;;;;5096076;28;20054;-60
2022/03/26 15:46:14;;;;;;;3.58;2.72;;;;;;;;;;5094248;28;20090;-60
2022/03/26 15:48:40;;;;;;;3.42;2.30;;;;;;;;;;5095525;28;20048;-60
2022/03/26 15:51:06;;;;;;;3.50;2.45;;;;;;;;;;5094386;28;20498;-60
2022/03/26 15:53:33;;;;;;;4.13;3.00;;;;;;;;;;5095474;28;20048;-60
2022/03/26 15:55:59;;;;;;;4.13;2.30;;;;;;;;;;5095501;28;20040;-60
2022/03/26 15:58:25;;;;;;;3.92;2.40;;;;;;;;;;5095395;28;20122;-60
2022/03/26 16:00:51;;;;;;;3.10;2.40;;;;;;;;;;5095211;28;20044;-60
2022/03/26 16:03:17;;;;;;;3.28;2.35;;;;;;;;;;5095023;28;20036;-60
2022/03/26 16:05:44;;;;;;;3.92;2.35;;;;;;;;;;5095213;28;20457;-60
2022/03/26 16:08:10;;;;;;;2.90;2.15;;;;;;;;;;5095200;28;20040;-60
2022/03/26 16:10:36;;;;;;;4.32;2.50;;;;;;;;;;5094661;28;20036;-60
2022/03/26 16:13:02;;;;;;;2.78;2.28;;;;;;;;;;5093016;28;20391;-61
2022/03/26 16:15:29;;;;;;;4.53;2.50;;;;;;;;;;5095014;28;20452;-60
2022/03/26 16:17:55;;;;;;;3.13;2.20;;;;;;;;;;5095000;28;20047;-60
2022/03/26 16:20:21;;;;;;;2.90;2.30;;;;;;;;;;5074934;28;20044;-60
2022/03/26 16:22:47;;;;;;;3.42;2.30;;;;;;;;;;5090779;28;20513;-60
2022/03/26 16:25:13;;;;;;;3.22;2.42;;;;;;;;;;5094732;28;20085;-60
2022/03/26 16:27:40;;;;;;;3.97;2.35;;;;;;;;;;5095103;28;20097;-60
2022/03/26 16:30:07;;;;;;;6.25;2.70;;;;;;;;;;5094809;28;20094;-60
2022/03/26 16:32:33;;;;;;;3.20;2.47;;;;;;;;;;5094965;28;20048;-60
2022/03/26 16:34:59;;;;;;;5.95;3.08;;;;;;;;;;5095090;28;20101;-60
2022/03/26 16:37:27;;;;;;;3.97;2.55;;;;;;;;;;5094416;28;20047;-60
2022/03/26 16:39:53;;;;;;;4.22;3.00;;;;;;;;;;5095244;28;20047;-60
2022/03/26 16:42:20;;;;;;;6.57;4.30;;;;;;;;;;5094578;28;20047;-60
2022/03/26 16:44:46;;;;;;;4.70;3.22;;;;;;;;;;5094392;28;20495;-60
2022/03/26 16:47:14;;;;;;;5.38;4.13;;;;;;;;;;5094289;28;20055;-60
2022/03/26 16:49:40;;;;;;;4.53;3.00;;;;;;;;;;5088195;28;20048;-60
2022/03/26 16:52:07;;;;;;;4.75;2.90;;;;;;;;;;5092097;28;20048;-60
2022/03/26 16:54:33;;;;;;;4.90;2.90;;;;;;;;;;5087118;28;20043;-60
2022/03/26 16:56:59;;;;;;;5.97;3.33;;;;;;;;;;5094321;28;20553;-61
2022/03/26 16:59:25;;;;;;;8.25;3.60;;;;;;;;;;5092361;28;20048;-60
2022/03/26 17:01:51;;;;;;;14.60;3.60;;;;;;;;;;5093804;28;20052;-60
2022/03/26 17:04:18;;;;;;;5.97;3.90;;;;;;;;;;5094349;28;20079;-60
2022/03/26 17:06:44;;;;;;;8.40;5.90;;;;;;;;;;5091580;28;20036;-60
2022/03/26 17:09:10;;;;;;;6.93;3.53;;;;;;;;;;5094197;28;20044;-60
2022/03/26 17:11:36;;;;;;;5.63;3.53;;;;;;;;;;5093218;28;20487;-60
2022/03/26 17:14:02;;;;;;;4.78;3.05;;;;;;;;;;5094438;28;20101;-60
2022/03/26 17:16:31;;;;;;;5.35;3.25;;;;;;;;;;5076381;28;20047;-59
2022/03/26 17:18:57;;;;;;;6.30;3.30;;;;;;;;;;5089346;28;20042;-61
2022/03/26 17:21:23;;;;;;;5.93;3.03;;;;;;;;;;5084895;28;20044;-60
2022/03/26 17:23:49;;;;;;;3.65;2.53;;;;;;;;;;5076069;28;20040;-60
2022/03/26 17:26:16;;;;;;;3.80;2.35;;;;;;;;;;5093903;28;20040;-60
2022/03/26 17:28:42;;;;;;;3.50;2.67;;;;;;;;;;5092975;28;20093;-61
2022/03/26 17:31:09;;;;;;;3.65;2.75;;;;;;;;;;5093454;28;20040;-60
2022/03/26 17:33:35;;;;;;;3.38;2.42;;;;;;;;;;5093629;28;20091;-60
2022/03/26 17:36:01;;;;;;;6.95;2.55;;;;;;;;;;5092593;28;20044;-61
2022/03/26 17:38:27;;;;;;;4.32;2.80;;;;;;;;;;5085729;28;20094;-60
2022/03/26 17:40:53;;;;;;;4.43;2.83;;;;;;;;;;5092230;28;20051;-60
2022/03/26 17:43:19;;;;;;;4.82;2.42;;;;;;;;;;5092839;28;20051;-61
2022/03/26 17:45:45;;;;;;;9.32;2.95;;;;;;;;;;5092510;28;20494;-61
2022/03/26 17:48:12;;;;;;;5.07;2.30;;;;;;;;;;5093776;28;20048;-61
2022/03/26 17:50:38;;;;;;;3.08;2.40;;;;;;;;;;5093323;28;20040;-61
2022/03/26 17:53:04;;;;;;;3.70;2.22;;;;;;;;;;5092480;28;20486;-60
2022/03/26 17:55:30;;;;;;;3.65;2.22;;;;;;;;;;5093660;28;20092;-60
2022/03/26 17:57:56;;;;;;;3.10;2.63;;;;;;;;;;5093151;28;20050;-61
2022/03/26 18:00:22;;;;;;;4.75;2.58;;;;;;;;;;5093074;28;20036;-61
2022/03/26 18:02:48;;;;;;;4.63;2.50;;;;;;;;;;5093249;28;20044;-61
2022/03/26 18:05:16;;;;;;;4.20;2.50;;;;;;;;;;5093056;28;20040;-61
2022/03/26 18:07:42;;;;;;;3.30;2.20;;;;;;;;;;5093219;28;20139;-60
2022/03/26 18:10:09;;;;;;;6.95;2.35;;;;;;;;;;5093061;28;20123;-61
2022/03/26 18:12:36;;;;;;;3.80;2.38;;;;;;;;;;5092941;28;20070;-61
2022/03/26 18:15:02;;;;;;;4.35;2.38;;;;;;;;;;5092938;28;20502;-61
2022/03/26 18:17:28;;;;;;;3.72;2.13;;;;;;;;;;5092893;28;20051;-61
2022/03/26 18:19:54;;;;;;;3.55;2.45;;;;;;;;;;5093422;28;20039;-61
2022/03/26 18:22:20;;;;;;;2.90;2.13;;;;;;;;;;5093105;28;20040;-61
2022/03/26 18:24:47;;;;;;;3.92;2.40;;;;;;;;;;5093092;28;20048;-60
2022/03/26 18:27:16;;;;;;;3.15;2.30;;;;;;;;;;5092836;28;20051;-61
2022/03/26 18:29:42;;;;;;;3.88;2.45;;;;;;;;;;5092319;28;20125;-60
2022/03/26 18:32:09;;;;;;;3.42;2.13;;;;;;;;;;5092757;28;20044;-61
2022/03/26 18:34:35;;;;;;;3.83;2.30;;;;;;;;;;5093142;28;20044;-61
2022/03/26 18:37:01;;;;;;;2.83;2.30;;;;;;;;;;5090317;28;20036;-61
2022/03/26 18:39:27;;;;;;;2.95;2.20;;;;;;;;;;5093176;28;20105;-61
2022/03/26 18:41:54;;;;;;;3.60;2.30;;;;;;;;;;5092574;28;20046;-60
2022/03/26 18:44:22;;;;;;;2.95;2.20;;;;;;;;;;5092633;28;20052;-60
2022/03/26 18:46:48;;;;;;;3.90;2.30;;;;;;;;;;5092156;28;20403;-60
2022/03/26 18:49:14;;;;;;;2.90;1.95;;;;;;;;;;5092938;28;20036;-61
2022/03/26 18:51:40;;;;;;;2.80;1.95;;;;;;;;;;5089160;28;20544;-61
2022/03/26 18:54:07;;;;;;;2.10;1.88;;;;;;;;;;5093572;28;20044;-61
2022/03/26 18:56:34;;;;;;;3.33;2.10;;;;;;;;;;5092595;28;20422;-60
2022/03/26 18:59:00;;;;;;;2.25;1.85;;;;;;;;;;5091247;28;20032;-60
2022/03/26 19:01:27;;;;;;;3.28;2.10;;;;;;;;;;5096455;28;20491;-60
2022/03/26 19:03:53;;;;;;;2.70;1.88;;;;;;;;;;5096242;28;20052;-61
2022/03/26 19:06:19;;;;;;;2.25;1.83;;;;;;;;;;5096213;28;20051;-61
2022/03/26 19:08:45;;;;;;;2.75;2.08;;;;;;;;;;5098196;28;20560;-61
2022/03/26 19:11:14;;;;;;;2.67;1.80;;;;;;;;;;5076042;28;20473;-61
2022/03/26 19:13:40;;;;;;;3.20;2.20;;;;;;;;;;5085711;28;20060;-59
2022/03/26 19:16:06;;;;;;;2.17;1.98;;;;;;;;;;5094513;28;20517;-60
2022/03/26 19:18:32;;;;;;;4.25;1.95;;;;;;;;;;5096005;28;20513;-59
2022/03/26 19:20:59;;;;;;;2.78;2.00;;;;;;;;;;5092868;28;20056;-60
2022/03/26 19:23:25;;;;;;;2.97;2.10;;;;;;;;;;5089790;28;20044;-60
2022/03/26 19:25:51;;;;;;;2.35;2.00;;;;;;;;;;5094516;28;20384;-59
2022/03/26 19:31:02;;;;;;;2.30;1.90;;;;;;;;;;5095776;28;20056;-59
2022/03/26 19:33:28;;;;;;;3.85;1.90;;;;;;;;;;5096233;28;20044;-59
2022/03/26 19:35:54;;;;;;;3.75;1.85;;;;;;;;;;5096179;28;20091;-61
2022/03/26 19:38:20;;;;;;;3.42;2.05;;;;;;;;;;5096076;28;20051;-61
2022/03/26 19:40:49;;;;;;;7.68;2.63;;;;;;;;;;5092917;28;20044;-63
2022/03/26 19:43:15;;;;;;;8.52;2.60;;;;;;;;;;5085758;28;20067;-63
2022/03/26 19:45:41;;;;;;;5.55;2.22;;;;;;;;;;5096066;28;20077;-62
2022/03/26 19:48:09;;;;;;;6.93;2.55;;;;;;;;;;5077016;28;20036;-62
2022/03/26 19:50:35;;;;;;;3.00;2.08;;;;;;;;;;5095800;28;20113;-62
2022/03/26 19:53:01;;;;;;;2.28;1.80;;;;;;;;;;5094462;28;20048;-61
2022/03/26 19:55:28;;;;;;;3.78;1.90;;;;;;;;;;5095484;28;20069;-62
2022/03/26 19:57:54;;;;;;;4.20;1.80;;;;;;;;;;5095323;28;20097;-62
2022/03/26 20:00:20;;;;;;;4.43;1.95;;;;;;;;;;5094983;28;20502;-62
2022/03/26 20:02:47;;;;;;;4.05;1.75;;;;;;;;;;5094989;28;20096;-61
2022/03/26 20:05:13;;;;;;;3.20;1.80;;;;;;;;;;5095298;28;20040;-62
2022/03/26 20:07:39;;;;;;;3.90;1.90;;;;;;;;;;5095230;28;20094;-62
2022/03/26 20:10:06;;;;;;;2.85;1.83;;;;;;;;;;5095024;28;20546;-62
2022/03/26 20:12:33;;;;;;;3.70;2.00;;;;;;;;;;5095157;28;20518;-62
2022/03/26 20:15:00;;;;;;;3.00;1.80;;;;;;;;;;5095495;28;20048;-62
2022/03/26 20:20:11;;;;;;;4.32;1.80;;;;;;;;;;5094677;28;20044;-62
2022/03/26 20:22:37;;;;;;;3.25;1.80;;;;;;;;;;5094728;28;20048;-62
2022/03/26 20:25:03;;;;;;;2.30;1.60;;;;;;;;;;5095270;28;20092;-62
2022/03/26 20:27:29;;;;;;;3.67;1.75;;;;;;;;;;5095193;28;20449;-62
2022/03/26 20:29:56;;;;;;;2.97;1.80;;;;;;;;;;5095165;28;20082;-62
2022/03/26 20:32:23;;;;;;;3.13;1.73;;;;;;;;;;5093415;28;20055;-62
2022/03/26 20:34:49;;;;;;;3.58;1.80;;;;;;;;;;5093833;28;20051;-62
2022/03/26 20:37:16;;;;;;;3.80;1.92;;;;;;;;;;5094727;28;20047;-62
2022/03/26 20:39:43;;;;;;;3.47;1.80;;;;;;;;;;5094673;28;20123;-61
2022/03/26 20:42:09;;;;;;;2.55;1.73;;;;;;;;;;5093992;28;20044;-61
2022/03/26 20:44:36;;;;;;;2.42;1.70;;;;;;;;;;5094503;28;20086;-61
2022/03/26 20:47:02;;;;;;;1.70;1.60;;;;;;;;;;5094473;28;20040;-61
2022/03/26 20:49:28;;;;;;;2.38;1.60;;;;;;;;;;5094087;28;20044;-61
2022/03/26 20:51:55;;;;;;;2.20;1.70;;;;;;;;;;5094305;28;20131;-61
2022/03/26 20:54:21;;;;;;;2.30;1.60;;;;;;;;;;5094343;28;20040;-61
2022/03/26 20:56:48;;;;;;;2.28;1.77;;;;;;;;;;5094472;28;20052;-61
2022/03/26 20:59:14;;;;;;;1.65;1.55;;;;;;;;;;5093989;28;20558;-62
2022/03/26 21:01:40;;;;;;;2.60;1.55;;;;;;;;;;5093918;28;20047;-62
2022/03/26 21:04:06;;;;;;;2.80;1.60;;;;;;;;;;5093861;28;20443;-64
2022/03/26 21:06:33;;;;;;;1.55;1.45;;;;;;;;;;5094485;28;20052;-62
2022/03/26 21:09:00;;;;;;;2.53;1.83;;;;;;;;;;5093470;28;20406;-62
2022/03/26 21:11:26;;;;;;;1.75;1.63;;;;;;;;;;5075425;28;20487;-62
2022/03/26 21:13:52;;;;;;;1.52;1.40;;;;;;;;;;5093170;28;20079;-62
2022/03/26 21:16:19;;;;;;;2.17;1.60;;;;;;;;;;5093824;28;20119;-62
2022/03/26 21:18:48;;;;;;;1.92;1.60;;;;;;;;;;5093756;28;20541;-62
2022/03/26 21:21:14;;;;;;;2.85;1.75;;;;;;;;;;5093255;28;20048;-62
2022/03/26 21:23:40;;;;;;;2.30;1.40;;;;;;;;;;5093358;28;20118;-62
2022/03/26 21:26:06;;;;;;;2.55;1.80;;;;;;;;;;5078412;28;20053;-62
2022/03/26 21:28:32;;;;;;;1.60;1.50;;;;;;;;;;5093257;28;20560;-62
2022/03/26 21:30:59;;;;;;;1.92;1.60;;;;;;;;;;5093675;28;20064;-62
2022/03/26 21:33:25;;;;;;;2.85;1.50;;;;;;;;;;5093462;28;20044;-63
2022/03/26 21:35:55;;;;;;;4.20;1.77;;;;;;;;;;5093759;28;20492;-62
2022/03/26 21:38:22;;;;;;;2.72;1.45;;;;;;;;;;5093964;28;20079;-62
2022/03/26 21:40:49;;;;;;;3.53;1.33;;;;;;;;;;5093615;28;20044;-63
2022/03/26 21:43:17;;;;;;;1.98;1.58;;;;;;;;;;5093802;28;20040;-62
2022/03/26 21:45:43;;;;;;;2.58;1.63;;;;;;;;;;5093662;28;20090;-62
2022/03/26 21:48:09;;;;;;;2.67;1.60;;;;;;;;;;5093356;28;20051;-62
2022/03/26 21:50:37;;;;;;;3.65;1.60;;;;;;;;;;5081962;28;20094;-62
2022/03/26 21:53:03;;;;;;;2.88;1.50;;;;;;;;;;5076341;28;20051;-62
2022/03/26 21:55:30;;;;;;;2.10;1.52;;;;;;;;;;5088208;28;20040;-62
2022/03/26 21:57:56;;;;;;;1.60;1.50;;;;;;;;;;5093225;28;20052;-62
2022/03/26 22:00:22;;;;;;;2.22;1.60;;;;;;;;;;5091477;28;20047;-63
2022/03/26 22:02:49;;;;;;;1.52;1.42;;;;;;;;;;5092926;28;20039;-62
2022/03/26 22:05:15;;;;;;;2.00;1.35;;;;;;;;;;5092990;28;20131;-62
2022/03/26 22:07:43;;;;;;;1.60;1.50;;;;;;;;;;5075420;28;20067;-62
2022/03/26 22:10:09;;;;;;;1.70;1.45;;;;;;;;;;5092703;28;20414;-62
2022/03/26 22:12:35;;;;;;;1.50;1.40;;;;;;;;;;5093316;28;20063;-62
2022/03/26 22:15:02;;;;;;;2.30;1.50;;;;;;;;;;5075257;28;20054;-62
2022/03/26 22:17:28;;;;;;;1.42;1.25;;;;;;;;;;5092682;28;20032;-62
2022/03/26 22:19:54;;;;;;;2.25;1.40;;;;;;;;;;5082451;28;20044;-62
2022/03/26 22:22:24;;;;;;;1.55;1.42;;;;;;;;;;5093075;28;20055;-62
2022/03/26 22:24:50;;;;;;;1.55;1.40;;;;;;;;;;5093042;28;20055;-62
2022/03/26 22:27:16;;;;;;;2.38;1.70;;;;;;;;;;5093003;28;20051;-62
2022/03/26 22:29:43;;;;;;;2.85;1.50;;;;;;;;;;5092658;28;20082;-62
2022/03/26 22:32:09;;;;;;;1.40;1.30;;;;;;;;;;5092592;28;20059;-62
2022/03/26 22:34:35;;;;;;;1.83;1.48;;;;;;;;;;5091946;28;20437;-62
2022/03/26 22:37:02;;;;;;;1.88;1.40;;;;;;;;;;5092955;28;20048;-61
2022/03/26 22:39:28;;;;;;;2.05;1.50;;;;;;;;;;5075373;28;20090;-61
2022/03/26 22:41:54;;;;;;;3.30;1.55;;;;;;;;;;5092826;28;20502;-62
2022/03/26 22:44:23;;;;;;;2.47;1.50;;;;;;;;;;5074159;28;20040;-62
2022/03/26 22:46:49;;;;;;;1.92;1.40;;;;;;;;;;5075190;28;20093;-62
2022/03/26 22:49:15;;;;;;;1.70;1.50;;;;;;;;;;5092413;28;20123;-62
2022/03/26 22:51:42;;;;;;;2.47;1.50;;;;;;;;;;5092468;28;20152;-62
2022/03/26 22:54:09;;;;;;;2.17;1.48;;;;;;;;;;5092541;28;20048;-62
2022/03/26 22:56:35;;;;;;;1.63;1.52;;;;;;;;;;5092702;28;20043;-62
2022/03/26 22:59:01;;;;;;;2.60;1.60;;;;;;;;;;5092479;28;20061;-62
2022/03/26 23:01:47;;;;;;;2.03;1.52;;;;;;;;;;5092752;28;20036;-62
2022/03/26 23:04:13;;;;;;;1.55;1.45;;;;;;;;;;5092743;28;20055;-61
2022/03/26 23:06:39;;;;;;;2.05;1.40;;;;;;;;;;5092012;28;20047;-61
2022/03/26 23:09:05;;;;;;;1.33;1.20;;;;;;;;;;5090946;28;20040;-62
2022/03/26 23:11:31;;;;;;;1.58;1.42;;;;;;;;;;5092163;28;20043;-61
2022/03/26 23:13:57;;;;;;;1.88;1.50;;;;;;;;;;5093024;28;20041;-61
2022/03/26 23:16:23;;;;;;;1.40;1.25;;;;;;;;;;5078674;28;20529;-62
2022/03/26 23:18:49;;;;;;;1.40;1.30;;;;;;;;;;5092412;28;20498;-63
2022/03/26 23:21:15;;;;;;;1.80;1.40;;;;;;;;;;5081850;28;20487;-62
2022/03/26 23:23:41;;;;;;;1.42;1.33;;;;;;;;;;5092148;28;20406;-62
2022/03/26 23:26:08;;;;;;;1.50;1.20;;;;;;;;;;5092674;28;20133;-62
2022/03/26 23:28:35;;;;;;;2.10;1.40;;;;;;;;;;5092293;28;20051;-61
2022/03/26 23:31:01;;;;;;;1.50;1.33;;;;;;;;;;5092629;28;20052;-62
2022/03/26 23:33:27;;;;;;;1.58;1.30;;;;;;;;;;5092429;28;20036;-62
2022/03/26 23:35:53;;;;;;;1.45;1.33;;;;;;;;;;5092143;28;20135;-62
2022/03/26 23:38:19;;;;;;;1.67;1.30;;;;;;;;;;5094176;28;20044;-63
2022/03/26 23:40:45;;;;;;;1.35;1.20;;;;;;;;;;5096039;28;20483;-61
2022/03/26 23:43:11;;;;;;;1.70;1.48;;;;;;;;;;5095851;28;20384;-61
2022/03/26 23:45:38;;;;;;;1.55;1.40;;;;;;;;;;5095705;28;20415;-61
2022/03/26 23:48:04;;;;;;;1.80;1.40;;;;;;;;;;5095633;28;20047;-62
2022/03/26 23:50:30;;;;;;;1.63;1.48;;;;;;;;;;5095623;28;20052;-62
2022/03/26 23:52:56;;;;;;;2.00;1.50;;;;;;;;;;5095690;28;20127;-62
2022/03/26 23:55:22;;;;;;;1.73;1.50;;;;;;;;;;5095738;28;20040;-62
2022/03/26 23:57:48;;;;;;;1.67;1.40;;;;;;;;;;5095524;28;20044;-62
